createdAt,value
2023-03-07T00:02:15.445Z,53.30
2023-03-07T00:04:47.072Z,53.50
2023-03-07T00:07:15.412Z,53.20
2023-03-07T00:09:43.504Z,53.20
2023-03-07T00:12:12.207Z,53.20
2023-03-07T00:14:40.457Z,53.30
2023-03-07T00:17:09.894Z,53.50
2023-03-07T00:19:38.079Z,53.30
2023-03-07T00:22:06.077Z,53.30
2023-03-07T00:24:34.031Z,53.30
2023-03-07T00:27:01.832Z,53.40
2023-03-07T00:29:31.268Z,53.30
2023-03-07T00:31:59.215Z,53.40
2023-03-07T00:34:28.557Z,53.60
2023-03-07T00:36:56.590Z,53.50
2023-03-07T00:39:24.508Z,53.50
2023-03-07T00:41:52.754Z,53.40
2023-03-07T00:44:20.707Z,53.50
2023-03-07T00:46:48.651Z,53.50
2023-03-07T00:49:16.540Z,53.60
2023-03-07T00:51:45.976Z,53.50
2023-03-07T00:54:14.159Z,53.60
2023-03-07T00:56:42.368Z,53.60
2023-03-07T00:59:11.138Z,53.70
2023-03-07T01:01:39.286Z,53.60
2023-03-07T01:04:07.573Z,53.70
2023-03-07T01:06:35.943Z,53.80
2023-03-07T01:09:08.261Z,53.70
2023-03-07T01:11:38.044Z,54.10
2023-03-07T01:14:07.377Z,53.70
2023-03-07T01:16:39.119Z,53.70
2023-03-07T01:19:08.778Z,54.00
2023-03-07T01:21:38.912Z,53.80
2023-03-07T01:24:11.196Z,53.90
2023-03-07T01:26:39.306Z,53.90
2023-03-07T01:29:08.328Z,53.90
2023-03-07T01:31:37.522Z,54.00
2023-03-07T01:34:06.065Z,54.20
2023-03-07T01:36:37.310Z,54.20
2023-03-07T01:39:10.377Z,54.20
2023-03-07T01:41:42.102Z,54.20
2023-03-07T01:44:17.322Z,54.20
2023-03-07T01:46:48.556Z,54.30
2023-03-07T01:49:24.910Z,54.40
2023-03-07T01:52:03.891Z,54.40
2023-03-07T01:54:38.170Z,54.40
2023-03-07T01:57:06.861Z,54.60
2023-03-07T01:59:38.004Z,54.40
2023-03-07T02:02:10.197Z,54.40
2023-03-07T02:04:43.943Z,54.40
2023-03-07T02:07:12.270Z,54.40
2023-03-07T02:09:42.376Z,54.40
2023-03-07T02:12:11.295Z,54.50
2023-03-07T02:14:39.334Z,54.50
2023-03-07T02:17:07.775Z,54.60
2023-03-07T02:19:53.283Z,54.40
2023-03-07T02:22:21.610Z,54.60
2023-03-07T02:24:54.198Z,54.60
2023-03-07T02:27:25.647Z,54.60
2023-03-07T02:29:54.256Z,54.50
2023-03-07T02:32:22.753Z,54.50
2023-03-07T02:34:50.837Z,54.50
2023-03-07T02:37:26.468Z,54.60
2023-03-07T02:39:55.797Z,54.70
2023-03-07T02:42:29.205Z,54.40
2023-03-07T02:45:07.969Z,54.70
2023-03-07T02:47:37.461Z,54.50
2023-03-07T02:50:06.366Z,54.40
2023-03-07T02:52:35.458Z,54.60
2023-03-07T02:55:03.680Z,54.50
2023-03-07T02:57:36.499Z,54.50
2023-03-07T03:00:08.099Z,54.50
2023-03-07T03:02:36.540Z,54.60
2023-03-07T03:05:04.781Z,54.60
2023-03-07T03:07:32.806Z,54.60
2023-03-07T03:10:03.006Z,54.50
2023-03-07T03:12:33.266Z,54.60
2023-03-07T03:15:02.838Z,54.60
2023-03-07T03:17:30.941Z,54.70
2023-03-07T03:19:58.997Z,54.70
2023-03-07T03:22:27.238Z,54.70
2023-03-07T03:24:55.945Z,54.70
2023-03-07T03:27:24.576Z,54.70
2023-03-07T03:29:55.689Z,54.70
2023-03-07T03:32:25.685Z,54.80
2023-03-07T03:34:53.950Z,54.80
2023-03-07T03:37:22.066Z,54.80
2023-03-07T03:39:50.469Z,54.80
2023-03-07T03:42:19.290Z,54.80
2023-03-07T03:44:47.569Z,54.90
2023-03-07T03:47:15.619Z,54.90
2023-03-07T03:49:45.303Z,54.90
2023-03-07T03:52:13.251Z,55.00
2023-03-07T03:54:41.516Z,54.90
2023-03-07T03:57:10.689Z,55.10
2023-03-07T03:59:38.697Z,54.90
2023-03-07T04:02:06.938Z,54.90
2023-03-07T04:04:35.403Z,54.90
2023-03-07T04:07:05.225Z,55.00
2023-03-07T04:09:34.211Z,55.00
2023-03-07T04:12:02.775Z,55.00
2023-03-07T04:14:31.190Z,55.00
2023-03-07T04:16:59.166Z,55.10
2023-03-07T04:19:29.469Z,55.10
2023-03-07T04:21:57.759Z,55.20
2023-03-07T04:24:27.700Z,55.10
2023-03-07T04:26:55.638Z,55.20
2023-03-07T04:29:23.929Z,55.30
2023-03-07T04:31:55.976Z,55.10
2023-03-07T04:34:24.307Z,55.00
2023-03-07T04:36:52.263Z,55.20
2023-03-07T04:39:20.380Z,55.20
2023-03-07T04:41:49.848Z,55.30
2023-03-07T04:44:22.645Z,55.30
2023-03-07T04:46:50.672Z,55.50
2023-03-07T04:49:18.795Z,55.30
2023-03-07T04:51:46.872Z,55.30
2023-03-07T04:54:17.217Z,55.20
2023-03-07T04:56:48.737Z,55.20
2023-03-07T04:59:16.665Z,55.20
2023-03-07T05:01:45.146Z,55.40
2023-03-07T05:04:13.025Z,55.30
2023-03-07T05:06:41.150Z,55.30
2023-03-07T05:09:10.008Z,55.30
2023-03-07T05:11:38.353Z,55.20
2023-03-07T05:14:09.520Z,55.20
2023-03-07T05:16:38.029Z,55.10
2023-03-07T05:19:06.683Z,55.20
2023-03-07T05:21:34.893Z,55.20
2023-03-07T05:24:03.368Z,55.20
2023-03-07T05:26:32.510Z,55.10
2023-03-07T05:29:00.910Z,55.00
2023-03-07T05:31:30.820Z,55.00
2023-03-07T05:33:59.239Z,55.00
2023-03-07T05:36:28.054Z,55.00
2023-03-07T05:38:57.047Z,54.90
2023-03-07T05:41:25.770Z,55.00
2023-03-07T05:43:54.801Z,55.00
2023-03-07T05:46:23.697Z,54.90
2023-03-07T05:48:53.382Z,54.80
2023-03-07T05:51:21.376Z,54.80
2023-03-07T05:53:49.635Z,54.80
2023-03-07T05:56:18.180Z,55.00
2023-03-07T05:58:46.165Z,55.00
2023-03-07T06:01:14.379Z,54.70
2023-03-07T06:03:44.033Z,54.80
2023-03-07T06:06:13.831Z,54.70
2023-03-07T06:08:42.530Z,54.80
2023-03-07T06:11:11.276Z,54.60
2023-03-07T06:13:40.740Z,54.70
2023-03-07T06:16:08.844Z,54.80
2023-03-07T06:18:40.202Z,55.00
2023-03-07T06:21:09.440Z,54.80
2023-03-07T06:23:43.852Z,54.70
2023-03-07T06:26:15.574Z,54.80
2023-03-07T06:28:46.556Z,54.90
2023-03-07T06:31:18.356Z,54.70
2023-03-07T06:33:47.627Z,54.80
2023-03-07T06:36:18.939Z,55.00
2023-03-07T06:38:51.910Z,55.00
2023-03-07T06:41:21.407Z,55.00
2023-03-07T06:43:52.312Z,54.90
2023-03-07T06:46:23.740Z,55.00
2023-03-07T06:48:52.081Z,55.10
2023-03-07T06:51:21.470Z,55.20
2023-03-07T06:53:51.832Z,55.10
2023-03-07T06:56:19.898Z,55.20
2023-03-07T06:58:47.979Z,55.10
2023-03-07T07:01:17.997Z,55.10
2023-03-07T07:03:47.959Z,55.10
2023-03-07T07:06:16.512Z,55.10
2023-03-07T07:08:44.759Z,55.10
2023-03-07T07:11:14.276Z,55.20
2023-03-07T07:13:42.544Z,55.10
2023-03-07T07:16:13.340Z,55.10
2023-03-07T07:18:41.683Z,55.10
2023-03-07T07:21:10.248Z,55.10
2023-03-07T07:23:38.647Z,55.10
2023-03-07T07:26:07.111Z,55.20
2023-03-07T07:28:37.936Z,55.10
2023-03-07T07:31:08.125Z,55.00
2023-03-07T07:33:36.718Z,55.00
2023-03-07T07:36:07.416Z,55.00
2023-03-07T07:38:37.500Z,55.10
2023-03-07T07:41:05.942Z,55.10
2023-03-07T07:43:35.024Z,55.10
2023-03-07T07:46:14.016Z,54.90
2023-03-07T07:48:42.472Z,54.90
2023-03-07T07:51:10.795Z,55.00
2023-03-07T07:53:39.264Z,54.90
2023-03-07T07:56:07.776Z,54.80
2023-03-07T07:58:36.066Z,54.70
2023-03-07T08:01:15.902Z,54.60
2023-03-07T08:03:44.214Z,54.50
2023-03-07T08:06:12.669Z,54.40
2023-03-07T08:08:41.123Z,54.40
2023-03-07T08:11:09.347Z,54.50
2023-03-07T08:13:37.472Z,54.60
2023-03-07T08:16:10.818Z,54.70
2023-03-07T08:18:40.239Z,54.80
2023-03-07T08:21:08.635Z,54.80
2023-03-07T08:23:37.002Z,54.40
2023-03-07T08:26:06.341Z,54.60
2023-03-07T08:28:34.773Z,54.60
2023-03-07T08:31:08.176Z,54.50
2023-03-07T08:33:36.219Z,54.40
2023-03-07T08:36:06.482Z,54.50
2023-03-07T08:38:34.881Z,54.30
2023-03-07T08:41:03.866Z,54.10
2023-03-07T08:43:33.253Z,54.10
2023-03-07T08:46:01.568Z,54.30
2023-03-07T08:48:30.689Z,54.20
2023-03-07T08:51:04.196Z,54.10
2023-03-07T08:53:33.703Z,54.10
2023-03-07T08:56:01.751Z,54.00
2023-03-07T08:58:29.649Z,54.00
2023-03-07T09:00:59.128Z,54.00
2023-03-07T09:03:27.362Z,54.10
2023-03-07T09:05:55.345Z,54.20
2023-03-07T09:08:23.427Z,54.30
2023-03-07T09:10:52.851Z,54.30
2023-03-07T09:13:21.417Z,54.20
2023-03-07T09:15:49.306Z,54.30
2023-03-07T09:18:17.480Z,54.30
2023-03-07T09:20:45.530Z,54.20
2023-03-07T09:23:13.568Z,53.90
2023-03-07T09:25:41.582Z,53.80
2023-03-07T09:28:10.751Z,53.90
2023-03-07T09:30:39.071Z,54.20
2023-03-07T09:33:07.184Z,54.40
2023-03-07T09:35:35.275Z,54.30
2023-03-07T09:38:03.189Z,54.10
2023-03-07T09:40:31.602Z,54.20
2023-03-07T09:43:07.575Z,54.30
2023-03-07T09:45:56.147Z,54.40
2023-03-07T09:48:52.292Z,54.20
2023-03-07T09:51:25.052Z,53.90
2023-03-07T09:53:56.335Z,53.90
2023-03-07T09:56:28.048Z,53.80
2023-03-07T09:59:03.654Z,53.90
2023-03-07T10:01:36.775Z,54.00
2023-03-07T10:04:06.969Z,53.90
2023-03-07T10:06:39.937Z,53.70
2023-03-07T10:09:13.504Z,53.40
2023-03-07T10:12:04.922Z,53.30
2023-03-07T10:14:48.505Z,53.20
2023-03-07T10:17:25.347Z,53.40
2023-03-07T10:19:57.292Z,53.30
2023-03-07T10:22:34.470Z,53.20
2023-03-07T10:25:13.648Z,53.00
2023-03-07T10:27:42.290Z,53.20
2023-03-07T10:30:15.841Z,53.20
2023-03-07T10:32:47.544Z,53.10
2023-03-07T10:35:20.912Z,53.00
2023-03-07T10:37:53.775Z,52.90
2023-03-07T10:40:26.871Z,53.10
2023-03-07T10:42:55.615Z,53.10
2023-03-07T10:45:23.869Z,53.30
2023-03-07T10:47:53.023Z,53.20
2023-03-07T10:50:28.111Z,53.00
2023-03-07T10:52:58.401Z,53.10
2023-03-07T10:55:35.874Z,53.20
2023-03-07T10:58:22.293Z,53.30
2023-03-07T11:01:14.496Z,53.20
2023-03-07T11:03:54.303Z,53.30
2023-03-07T11:06:44.613Z,53.50
2023-03-07T11:09:18.681Z,53.30
2023-03-07T11:11:53.749Z,53.30
2023-03-07T11:14:23.017Z,53.10
2023-03-07T11:16:53.302Z,53.20
2023-03-07T11:19:38.442Z,53.00
2023-03-07T11:22:19.425Z,53.10
2023-03-07T11:24:55.858Z,53.10
2023-03-07T11:27:31.157Z,53.20
2023-03-07T11:30:22.923Z,53.10
2023-03-07T11:33:03.081Z,53.00
2023-03-07T11:35:47.515Z,53.40
2023-03-07T11:38:24.591Z,53.40
2023-03-07T11:41:00.655Z,53.20
2023-03-07T11:43:58.522Z,53.10
2023-03-07T11:46:39.747Z,52.80
2023-03-07T11:49:21.911Z,53.10
2023-03-07T11:52:01.182Z,53.00
2023-03-07T11:54:38.897Z,52.80
2023-03-07T11:57:18.108Z,52.90
2023-03-07T12:00:18.689Z,52.80
2023-03-07T12:03:18.764Z,52.40
2023-03-07T12:06:20.059Z,52.20
2023-03-07T12:09:00.598Z,51.90
2023-03-07T12:11:45.808Z,52.10
2023-03-07T12:14:22.193Z,51.90
2023-03-07T12:16:58.534Z,52.10
2023-03-07T12:19:52.752Z,52.20
2023-03-07T12:22:28.431Z,52.10
2023-03-07T12:25:05.859Z,52.00
2023-03-07T12:27:37.903Z,52.10
2023-03-07T12:30:14.946Z,52.20
2023-03-07T12:32:43.315Z,51.90
2023-03-07T12:35:23.519Z,52.20
2023-03-07T12:37:56.953Z,52.10
2023-03-07T12:40:33.978Z,52.00
2023-03-07T12:43:14.048Z,51.90
2023-03-07T12:45:48.837Z,52.00
2023-03-07T12:48:23.496Z,52.00
2023-03-07T12:51:00.853Z,52.10
2023-03-07T12:53:36.235Z,52.10
2023-03-07T12:56:12.405Z,52.10
2023-03-07T12:58:48.342Z,52.00
2023-03-07T13:01:19.442Z,52.10
2023-03-07T13:03:54.676Z,52.20
2023-03-07T13:06:25.054Z,51.50
2023-03-07T13:08:55.894Z,51.90
2023-03-07T13:11:27.189Z,51.90
2023-03-07T13:13:58.628Z,51.80
2023-03-07T13:16:44.755Z,51.40
2023-03-07T13:19:51.621Z,51.80
2023-03-07T13:22:58.094Z,51.80
2023-03-07T13:25:58.788Z,51.90
2023-03-07T13:28:46.120Z,51.50
2023-03-07T13:31:30.267Z,51.80
2023-03-07T13:34:18.594Z,51.80
2023-03-07T13:36:47.854Z,51.80
2023-03-07T13:39:37.212Z,51.70
2023-03-07T13:42:05.154Z,52.10
2023-03-07T13:44:39.981Z,51.70
2023-03-07T13:47:41.440Z,51.30
2023-03-07T13:50:58.769Z,51.60
2023-03-07T13:53:36.843Z,51.60
2023-03-07T13:56:16.833Z,51.50
2023-03-07T13:58:48.308Z,51.50
2023-03-07T14:01:20.565Z,51.70
2023-03-07T14:03:52.196Z,51.90
2023-03-07T14:06:23.876Z,51.90
2023-03-07T14:08:54.957Z,51.90
2023-03-07T14:11:28.641Z,51.00
2023-03-07T14:14:16.554Z,51.60
2023-03-07T14:16:58.314Z,51.30
2023-03-07T14:19:48.067Z,51.30
2023-03-07T14:22:24.679Z,51.40
2023-03-07T14:25:05.475Z,51.50
2023-03-07T14:27:48.566Z,51.60
2023-03-07T14:30:18.258Z,51.60
2023-03-07T14:32:46.405Z,51.60
2023-03-07T14:35:15.596Z,51.70
2023-03-07T14:37:45.433Z,51.70
2023-03-07T14:40:33.281Z,51.70
2023-03-07T14:43:22.512Z,51.80
2023-03-07T14:45:59.493Z,51.80
2023-03-07T14:48:47.313Z,51.80
2023-03-07T14:51:18.584Z,51.50
2023-03-07T14:53:46.878Z,51.70
2023-03-07T14:56:22.469Z,51.70
2023-03-07T14:58:53.647Z,51.70
2023-03-07T15:01:21.808Z,51.70
2023-03-07T15:03:52.309Z,51.80
2023-03-07T15:06:22.816Z,52.20
2023-03-07T15:08:52.110Z,52.10
2023-03-07T15:11:29.438Z,52.20
2023-03-07T15:14:01.150Z,52.30
2023-03-07T15:16:32.859Z,52.40
2023-03-07T15:19:05.516Z,52.40
2023-03-07T15:21:39.683Z,52.50
2023-03-07T15:24:15.355Z,52.60
2023-03-07T15:26:49.815Z,52.50
2023-03-07T15:29:17.942Z,52.60
2023-03-07T15:31:53.782Z,52.60
2023-03-07T15:34:25.081Z,52.80
2023-03-07T15:36:53.748Z,52.80
2023-03-07T15:39:34.517Z,52.80
2023-03-07T15:42:08.855Z,53.00
2023-03-07T15:44:37.909Z,53.00
2023-03-07T15:47:14.895Z,53.00
2023-03-07T15:49:44.950Z,53.10
2023-03-07T15:52:23.565Z,53.10
2023-03-07T15:54:53.858Z,53.50
2023-03-07T15:57:25.893Z,53.10
2023-03-07T15:59:58.047Z,53.20
2023-03-07T16:02:46.793Z,53.40
2023-03-07T16:05:38.731Z,53.30
2023-03-07T16:08:12.820Z,53.10
2023-03-07T16:10:47.398Z,52.90
2023-03-07T16:13:20.295Z,52.70
2023-03-07T16:16:00.218Z,52.60
2023-03-07T16:18:30.217Z,52.40
2023-03-07T16:20:58.581Z,52.30
2023-03-07T16:23:28.821Z,52.30
2023-03-07T16:25:57.205Z,52.30
2023-03-07T16:28:27.341Z,52.40
2023-03-07T16:30:55.290Z,52.70
2023-03-07T16:33:23.344Z,52.60
2023-03-07T16:35:51.899Z,52.50
2023-03-07T16:38:21.432Z,52.60
2023-03-07T16:40:49.603Z,52.50
2023-03-07T16:43:34.959Z,52.50
2023-03-07T16:46:06.703Z,52.60
2023-03-07T16:48:36.284Z,52.50
2023-03-07T16:51:04.890Z,52.50
2023-03-07T16:53:32.992Z,52.60
2023-03-07T16:56:01.782Z,52.50
2023-03-07T16:58:37.105Z,52.50
2023-03-07T17:01:06.129Z,52.30
2023-03-07T17:03:34.450Z,52.40
2023-03-07T17:06:02.709Z,52.50
2023-03-07T17:08:30.790Z,52.50
2023-03-07T17:10:59.214Z,52.40
2023-03-07T17:13:27.256Z,52.30
2023-03-07T17:15:57.092Z,52.30
2023-03-07T17:18:26.598Z,52.30
2023-03-07T17:20:54.858Z,52.30
2023-03-07T17:23:22.782Z,52.30
2023-03-07T17:25:50.983Z,52.40
2023-03-07T17:28:20.418Z,52.40
2023-03-07T17:30:49.921Z,52.40
2023-03-07T17:33:19.832Z,52.40
2023-03-07T17:35:48.093Z,52.50
2023-03-07T17:38:16.051Z,52.50
2023-03-07T17:40:44.965Z,52.60
2023-03-07T17:43:13.434Z,52.60
2023-03-07T17:45:41.414Z,52.70
2023-03-07T17:48:09.428Z,52.70
2023-03-07T17:50:41.058Z,52.70
2023-03-07T17:53:09.480Z,52.70
2023-03-07T17:55:38.851Z,52.70
2023-03-07T17:58:09.280Z,52.80
2023-03-07T18:00:37.983Z,52.70
2023-03-07T18:03:06.595Z,52.80
2023-03-07T18:05:34.783Z,52.90
2023-03-07T18:08:05.026Z,52.90
2023-03-07T18:10:33.557Z,52.90
2023-03-07T18:13:01.647Z,52.90
2023-03-07T18:15:29.888Z,53.00
2023-03-07T18:17:59.288Z,52.90
2023-03-07T18:20:29.658Z,53.00
2023-03-07T18:22:57.707Z,53.10
2023-03-07T18:25:26.950Z,53.20
2023-03-07T18:27:55.248Z,53.20
2023-03-07T18:30:23.605Z,53.20
2023-03-07T18:32:55.537Z,53.30
2023-03-07T18:35:24.493Z,53.30
2023-03-07T18:37:52.391Z,53.30
2023-03-07T18:40:22.819Z,53.30
2023-03-07T18:42:53.105Z,53.30
2023-03-07T18:45:21.158Z,53.40
2023-03-07T18:47:49.300Z,53.40
2023-03-07T18:50:18.054Z,53.40
2023-03-07T18:52:46.270Z,53.40
2023-03-07T18:55:14.404Z,53.40
2023-03-07T18:57:42.419Z,53.40
2023-03-07T19:00:13.094Z,53.40
2023-03-07T19:02:41.187Z,53.40
2023-03-07T19:05:10.601Z,53.50
2023-03-07T19:07:38.729Z,53.40
2023-03-07T19:10:07.769Z,53.50
2023-03-07T19:12:35.940Z,53.50
2023-03-07T19:15:04.219Z,53.50
2023-03-07T19:17:38.523Z,53.50
2023-03-07T19:20:07.136Z,53.50
2023-03-07T19:22:35.458Z,53.50
2023-03-07T19:25:03.733Z,53.50
2023-03-07T19:27:32.199Z,53.50
2023-03-07T19:30:00.085Z,53.50
2023-03-07T19:32:29.882Z,53.60
2023-03-07T19:34:59.407Z,53.60
2023-03-07T19:37:27.475Z,53.70
2023-03-07T19:39:56.118Z,53.70
2023-03-07T19:42:24.063Z,53.70
2023-03-07T19:44:52.065Z,53.70
2023-03-07T19:47:20.154Z,53.80
2023-03-07T19:49:48.624Z,53.80
2023-03-07T19:52:17.976Z,53.80
2023-03-07T19:54:46.400Z,53.80
2023-03-07T19:57:15.965Z,53.90
2023-03-07T19:59:44.292Z,53.80
2023-03-07T20:02:13.836Z,53.80
2023-03-07T20:04:41.793Z,53.80
2023-03-07T20:07:10.382Z,53.90
2023-03-07T20:09:40.485Z,53.90
2023-03-07T20:12:10.259Z,53.90
2023-03-07T20:14:42.729Z,53.80
2023-03-07T20:17:11.284Z,53.80
2023-03-07T20:19:39.458Z,53.80
2023-03-07T20:22:07.518Z,53.80
2023-03-07T20:24:36.086Z,53.80
2023-03-07T20:27:05.928Z,53.70
2023-03-07T20:29:33.950Z,53.80
2023-03-07T20:32:02.356Z,53.80
2023-03-07T20:34:30.284Z,53.80
2023-03-07T20:36:58.357Z,53.80
2023-03-07T20:39:26.844Z,53.70
2023-03-07T20:41:54.847Z,53.80
2023-03-07T20:44:24.226Z,53.70
2023-03-07T20:46:52.220Z,53.70
2023-03-07T20:49:20.282Z,53.70
2023-03-07T20:51:48.905Z,53.70
2023-03-07T20:54:19.165Z,53.70
2023-03-07T20:56:48.346Z,53.80
2023-03-07T20:59:18.389Z,53.80
2023-03-07T21:01:48.832Z,53.80
2023-03-07T21:04:18.455Z,53.80
2023-03-07T21:06:48.386Z,53.90
2023-03-07T21:09:18.316Z,53.80
2023-03-07T21:11:49.351Z,53.90
2023-03-07T21:14:19.284Z,53.90
2023-03-07T21:16:49.160Z,53.90
2023-03-07T21:19:17.334Z,53.90
2023-03-07T21:21:45.866Z,54.00
2023-03-07T21:24:15.419Z,54.00
2023-03-07T21:26:43.719Z,54.00
2023-03-07T21:29:13.707Z,54.00
2023-03-07T21:31:42.123Z,54.00
2023-03-07T21:34:14.586Z,54.00
2023-03-07T21:36:42.800Z,54.00
2023-03-07T21:39:12.364Z,54.00
2023-03-07T21:41:40.924Z,54.00
2023-03-07T21:44:09.203Z,54.00
2023-03-07T21:46:37.398Z,54.00
2023-03-07T21:49:05.487Z,54.00
2023-03-07T21:51:35.621Z,53.90
2023-03-07T21:54:03.848Z,53.80
2023-03-07T21:56:32.062Z,53.80
2023-03-07T21:58:59.937Z,53.90
2023-03-07T22:01:29.462Z,54.00
2023-03-07T22:03:59.364Z,53.90
2023-03-07T22:06:28.288Z,54.00
2023-03-07T22:08:59.324Z,53.90
2023-03-07T22:11:27.508Z,54.00
2023-03-07T22:13:55.386Z,54.00
2023-03-07T22:16:23.433Z,54.00
2023-03-07T22:18:55.678Z,54.00
2023-03-07T22:21:26.321Z,54.20
2023-03-07T22:23:57.561Z,54.00
2023-03-07T22:26:27.725Z,54.00
2023-03-07T22:28:56.290Z,54.00
2023-03-07T22:31:24.914Z,54.00
2023-03-07T22:33:53.242Z,54.00
2023-03-07T22:36:21.442Z,53.90
2023-03-07T22:38:53.986Z,54.00
2023-03-07T22:41:22.455Z,54.00
2023-03-07T22:43:52.416Z,54.00
2023-03-07T22:46:20.688Z,53.90
2023-03-07T22:48:52.070Z,53.90
2023-03-07T22:51:20.122Z,53.90
2023-03-07T22:53:48.256Z,53.90
2023-03-07T22:56:18.644Z,54.00
2023-03-07T22:58:46.827Z,53.90
2023-03-07T23:01:20.081Z,53.90
2023-03-07T23:03:48.349Z,53.90
2023-03-07T23:06:17.301Z,53.90
2023-03-07T23:08:46.453Z,53.90
2023-03-07T23:11:15.697Z,53.90
2023-03-07T23:13:44.203Z,53.90
2023-03-07T23:16:14.028Z,53.90
2023-03-07T23:18:44.387Z,53.90
2023-03-07T23:21:15.446Z,53.80
2023-03-07T23:23:43.661Z,53.80
2023-03-07T23:26:18.937Z,53.90
2023-03-07T23:28:47.474Z,53.90
2023-03-07T23:31:20.522Z,53.90
2023-03-07T23:33:50.298Z,53.90
2023-03-07T23:36:18.297Z,53.80
2023-03-07T23:38:47.699Z,53.80
2023-03-07T23:41:16.718Z,53.80
2023-03-07T23:43:46.301Z,53.80
2023-03-07T23:46:14.872Z,53.90
2023-03-07T23:48:43.103Z,53.90
2023-03-07T23:51:12.754Z,53.90
2023-03-07T23:53:40.732Z,53.80
2023-03-07T23:56:10.496Z,53.80
2023-03-07T23:58:39.148Z,53.80
